Trenton, NJ

07:16 AM EST em 28 de Fevereiro de 2017 (GMT -0500)
Morris Heights | | Change Station

Elev 89 ft 40.22 °N, 74.78 °W | Updated 1 second ago

Muito Nublado
Muito Nublado
42.1 °F
Aparente 42 °F
N
0.0
Vento Variável Vento de NNO
Gusts 0.3 mph

Hoje
Máxima -- | Mínima -- °F
--% Possibilidade de Precip.
Ontem
Máxima -- | Mínima -- °F
Precip. -- pol
Pressão 30.32 pol
Visibilidade 10.0 milhas
Nuvens Poucas 9000 ft
Sensação Térmica 42 °F
Ponto de Orvalho 34 °F
Humidade 72%
Chuva 0.00 pol
Altura de Neve Não disponível
6:33 AM 5:49 PM
Quarto crescente, 4% visible
METAR KTTN 281153Z 35003KT 10SM FEW090 05/01 A3033 RMK AO2 SLP265 T00500006 10061 20050 58004
Pressão 30.32 pol
Visibilidade 10.0 milhas
Nuvens Poucas 9000 ft
Sensação Térmica 42 °F
Ponto de Orvalho 34 °F
Humidade 72%
Chuva 0.00 pol
Altura de Neve Não disponível
6:33 AM 5:49 PM
Quarto crescente, 4% visible
METAR KTTN 281153Z 35003KT 10SM FEW090 05/01 A3033 RMK AO2 SLP265 T00500006 10061 20050 58004

Get Your Daily Forecast Email!

Thanks for signing up!

Be on the lookout for a verification email in your inbox.

You'll start receiving the daily forecast at 8 AM.

×

10-Day Weather Forecast

Almanac

Astronomia

Feb. 28, 2017 Nascer Pôr
Hora atual
Crepúsculo civil
Crepúsculo náutico
Crepúsculo astronómico
Lua
Comprimento da luz visível
Duração do Dia
Tomorrow will be .
, % of the Moon is Illuminated

Extremos de Hoje

situação na parte mais alta situação na parte mais baixa

Community

WunderPhotos

Upload Photos

1,962,540 fotografias inseridas!

WunderBlog® & News

Nearby

Qualidade do Ar

  Qualidade do Ar Índice da Q.A. Poluente
Not available.

Altura da Neve

Estação altura Altitude

Actividade Sísmisca

Cidade Distância Mag. Hora & Data
Mínima magnitude apresentada é 2.5.

Temperaturas das Águas Costeiras

Local Temperatura

Stations

Estações Meteorológicas Próximas

Localização da Estação Temp. Sensação Térmica Ponto de Orvalho Humidade Vento Precip. Elev Actualizado Tipo
                   

Watches & Warnings

There are currently no watches in effect.